createdAt,value
2023-03-29T00:00:07.998Z,69.05
2023-03-29T00:01:10.971Z,69.65
2023-03-29T00:02:34.293Z,69.74
2023-03-29T00:03:37.029Z,69.27
2023-03-29T00:04:38.998Z,69.65
2023-03-29T00:05:41.758Z,70.04
2023-03-29T00:06:47.695Z,69.79
2023-03-29T00:07:53.934Z,69.92
2023-03-29T00:09:04.822Z,70.04
2023-03-29T00:10:07.948Z,69.77
2023-03-29T00:11:09.684Z,69.72
2023-03-29T00:12:12.209Z,71.18
2023-03-29T00:13:13.663Z,71.16
2023-03-29T00:14:16.457Z,71.16
2023-03-29T00:15:18.235Z,70.83
2023-03-29T00:16:20.990Z,72.11
2023-03-29T00:17:23.063Z,71.87
2023-03-29T00:18:26.995Z,71.66
2023-03-29T00:19:28.965Z,72.09
2023-03-29T00:20:31.448Z,72.21
2023-03-29T00:21:33.058Z,72.04
2023-03-29T00:22:36.140Z,71.81
2023-03-29T00:23:37.727Z,71.19
2023-03-29T00:24:40.549Z,70.51
2023-03-29T00:25:44.834Z,71.07
2023-03-29T00:26:47.344Z,70.72
2023-03-29T00:27:49.126Z,69.94
2023-03-29T00:28:51.740Z,70.12
2023-03-29T00:29:53.212Z,70.31
2023-03-29T00:31:04.557Z,70.34
2023-03-29T00:32:06.497Z,69.93
2023-03-29T00:33:09.010Z,70.38
2023-03-29T00:34:11.947Z,70.65
2023-03-29T00:35:14.931Z,70.70
2023-03-29T00:36:16.436Z,71.31
2023-03-29T00:37:19.777Z,71.12
2023-03-29T00:38:21.369Z,70.65
2023-03-29T00:39:23.824Z,70.97
2023-03-29T00:40:25.807Z,70.40
2023-03-29T00:41:29.342Z,69.96
2023-03-29T00:42:30.964Z,70.17
2023-03-29T00:43:55.793Z,69.90
2023-03-29T00:45:04.588Z,70.86
2023-03-29T00:46:07.177Z,70.29
2023-03-29T00:47:08.978Z,70.05
2023-03-29T00:48:15.792Z,69.50
2023-03-29T00:49:19.046Z,69.74
2023-03-29T00:50:26.071Z,70.06
2023-03-29T00:51:34.451Z,71.86
2023-03-29T00:52:37.358Z,70.74
2023-03-29T00:53:45.179Z,70.14
2023-03-29T00:54:52.971Z,70.56
2023-03-29T00:56:01.681Z,70.69
2023-03-29T00:57:04.952Z,70.88
2023-03-29T00:58:09.940Z,71.75
2023-03-29T00:59:15.660Z,72.01
2023-03-29T01:00:22.167Z,71.65
2023-03-29T01:01:30.426Z,72.19
2023-03-29T01:02:35.433Z,72.54
2023-03-29T01:03:46.249Z,72.91
2023-03-29T01:04:57.332Z,73.83
2023-03-29T01:06:04.045Z,73.33
2023-03-29T01:07:12.966Z,72.67
2023-03-29T01:08:21.774Z,72.14
2023-03-29T01:09:27.190Z,72.24
2023-03-29T01:10:35.387Z,72.02
2023-03-29T01:11:42.670Z,71.47
2023-03-29T01:12:48.898Z,71.24
2023-03-29T01:13:56.978Z,71.70
2023-03-29T01:15:03.477Z,71.50
2023-03-29T01:16:09.302Z,70.79
2023-03-29T01:17:10.997Z,70.50
2023-03-29T01:18:13.930Z,70.72
2023-03-29T01:19:19.946Z,70.56
2023-03-29T01:20:33.157Z,70.33
2023-03-29T01:21:42.916Z,70.28
2023-03-29T01:22:56.407Z,69.87
2023-03-29T01:24:16.301Z,69.71
2023-03-29T01:25:27.021Z,70.40
2023-03-29T01:26:36.039Z,69.98
2023-03-29T01:27:50.090Z,70.15
2023-03-29T01:28:56.195Z,70.22
2023-03-29T01:30:04.119Z,71.11
2023-03-29T01:31:11.228Z,71.56
2023-03-29T01:32:17.725Z,71.30
2023-03-29T01:33:23.640Z,70.90
2023-03-29T01:34:34.306Z,71.01
2023-03-29T01:35:42.508Z,70.77
2023-03-29T01:36:50.378Z,70.83
2023-03-29T01:37:58.393Z,70.38
2023-03-29T01:39:05.110Z,70.42
2023-03-29T01:40:07.777Z,70.98
2023-03-29T01:41:12.082Z,70.71
2023-03-29T01:42:24.399Z,71.21
2023-03-29T01:43:35.276Z,70.98
2023-03-29T01:44:43.487Z,70.99
2023-03-29T01:45:50.404Z,71.39
2023-03-29T01:46:55.451Z,71.57
2023-03-29T01:48:06.625Z,71.23
2023-03-29T01:49:14.343Z,70.93
2023-03-29T01:50:20.628Z,70.60
2023-03-29T01:51:25.874Z,70.97
2023-03-29T01:52:34.681Z,71.37
2023-03-29T01:53:40.372Z,70.78
2023-03-29T01:54:48.780Z,70.96
2023-03-29T01:55:54.657Z,70.82
2023-03-29T01:56:59.462Z,70.51
2023-03-29T01:58:07.339Z,70.28
2023-03-29T01:59:14.792Z,70.22
2023-03-29T02:00:20.287Z,69.58
2023-03-29T02:01:26.927Z,70.00
2023-03-29T02:02:30.469Z,70.13
2023-03-29T02:03:42.677Z,69.89
2023-03-29T02:04:50.152Z,70.01
2023-03-29T02:05:54.669Z,70.05
2023-03-29T02:06:57.747Z,69.50
2023-03-29T02:08:02.506Z,69.18
2023-03-29T02:09:04.832Z,69.38
2023-03-29T02:10:09.751Z,69.18
2023-03-29T02:11:11.674Z,68.75
2023-03-29T02:12:16.547Z,68.83
2023-03-29T02:13:18.923Z,69.62
2023-03-29T02:14:24.151Z,69.61
2023-03-29T02:15:25.960Z,69.55
2023-03-29T02:16:28.657Z,69.63
2023-03-29T02:17:30.699Z,71.00
2023-03-29T02:18:33.432Z,70.53
2023-03-29T02:19:34.967Z,70.19
2023-03-29T02:20:41.032Z,71.49
2023-03-29T02:21:48.275Z,70.95
2023-03-29T02:22:57.541Z,70.79
2023-03-29T02:24:03.309Z,71.26
2023-03-29T02:25:09.422Z,70.55
2023-03-29T02:26:14.446Z,70.42
2023-03-29T02:27:17.415Z,69.44
2023-03-29T02:28:19.906Z,69.19
2023-03-29T02:29:23.767Z,68.32
2023-03-29T02:30:30.419Z,68.47
2023-03-29T02:31:38.467Z,67.89
2023-03-29T02:32:49.452Z,67.69
2023-03-29T02:33:58.721Z,67.68
2023-03-29T02:35:04.629Z,67.15
2023-03-29T02:36:13.181Z,67.41
2023-03-29T02:37:18.817Z,67.66
2023-03-29T02:38:25.583Z,67.52
2023-03-29T02:39:29.036Z,66.83
2023-03-29T02:40:34.633Z,67.43
2023-03-29T02:41:37.942Z,66.86
2023-03-29T02:42:41.782Z,67.02
2023-03-29T02:43:46.234Z,66.73
2023-03-29T02:44:53.544Z,67.51
2023-03-29T02:45:55.867Z,67.33
2023-03-29T02:47:03.177Z,67.02
2023-03-29T02:48:09.046Z,66.20
2023-03-29T02:49:12.553Z,66.21
2023-03-29T02:50:14.230Z,66.77
2023-03-29T02:51:20.898Z,67.13
2023-03-29T02:52:25.795Z,67.12
2023-03-29T02:53:33.138Z,66.80
2023-03-29T02:54:38.009Z,66.20
2023-03-29T02:55:40.544Z,66.50
2023-03-29T02:56:43.398Z,67.75
2023-03-29T02:57:46.074Z,68.08
2023-03-29T02:58:47.715Z,67.98
2023-03-29T02:59:51.784Z,68.05
2023-03-29T03:00:53.899Z,68.21
2023-03-29T03:01:56.638Z,67.50
2023-03-29T03:03:00.659Z,66.71
2023-03-29T03:04:04.711Z,67.13
2023-03-29T03:05:09.210Z,67.41
2023-03-29T03:06:12.162Z,66.88
2023-03-29T03:07:13.782Z,68.03
2023-03-29T03:08:16.367Z,67.27
2023-03-29T03:09:18.572Z,67.03
2023-03-29T03:10:21.043Z,67.27
2023-03-29T03:11:23.882Z,67.71
2023-03-29T03:12:27.139Z,67.25
2023-03-29T03:13:28.655Z,67.24
2023-03-29T03:14:31.412Z,67.34
2023-03-29T03:15:35.749Z,67.42
2023-03-29T03:16:38.682Z,66.97
2023-03-29T03:17:40.380Z,67.21
2023-03-29T03:18:43.725Z,67.18
2023-03-29T03:19:45.240Z,68.42
2023-03-29T03:20:56.197Z,70.69
2023-03-29T03:21:57.838Z,70.08
2023-03-29T03:23:01.193Z,69.90
2023-03-29T03:24:02.762Z,70.85
2023-03-29T03:25:06.086Z,70.82
2023-03-29T03:26:08.678Z,70.94
2023-03-29T03:27:11.206Z,70.46
2023-03-29T03:28:14.037Z,71.30
2023-03-29T03:29:16.561Z,71.72
2023-03-29T03:30:18.927Z,72.64
2023-03-29T03:31:23.162Z,73.81
2023-03-29T03:32:24.761Z,73.76
2023-03-29T03:33:28.232Z,73.19
2023-03-29T03:34:29.765Z,73.01
2023-03-29T03:35:32.440Z,73.15
2023-03-29T03:36:34.645Z,72.20
2023-03-29T03:37:38.317Z,71.72
2023-03-29T03:38:40.140Z,70.98
2023-03-29T03:39:43.460Z,70.68
2023-03-29T03:40:45.021Z,69.80
2023-03-29T03:41:47.799Z,69.86
2023-03-29T03:42:49.375Z,69.28
2023-03-29T03:43:52.131Z,68.94
2023-03-29T03:44:54.121Z,68.72
2023-03-29T03:45:57.168Z,68.98
2023-03-29T03:47:00.062Z,68.29
2023-03-29T03:48:02.999Z,68.64
2023-03-29T03:49:04.820Z,68.91
2023-03-29T03:50:09.057Z,69.05
2023-03-29T03:51:11.118Z,69.03
2023-03-29T03:52:13.737Z,69.65
2023-03-29T03:53:15.491Z,69.41
2023-03-29T03:54:18.049Z,69.39
2023-03-29T03:55:19.582Z,69.28
2023-03-29T03:56:22.607Z,69.68
2023-03-29T03:57:24.629Z,69.06
2023-03-29T03:58:27.595Z,68.74
2023-03-29T03:59:29.200Z,69.04
2023-03-29T04:00:31.790Z,68.55
2023-03-29T04:01:34.089Z,68.69
2023-03-29T04:02:37.965Z,68.33
2023-03-29T04:03:39.745Z,67.63
2023-03-29T04:04:42.242Z,67.72
2023-03-29T04:05:45.879Z,67.59
2023-03-29T04:06:48.406Z,67.40
2023-03-29T04:07:49.987Z,67.26
2023-03-29T04:08:52.435Z,66.99
2023-03-29T04:09:54.219Z,67.79
2023-03-29T04:10:58.754Z,67.79
2023-03-29T04:12:01.697Z,68.10
2023-03-29T04:13:05.209Z,68.41
2023-03-29T04:14:07.639Z,68.45
2023-03-29T04:15:10.425Z,70.95
2023-03-29T04:16:13.013Z,70.92
2023-03-29T04:17:14.542Z,71.30
2023-03-29T04:18:18.469Z,70.40
2023-03-29T04:19:20.744Z,70.29
2023-03-29T04:20:23.244Z,70.71
2023-03-29T04:21:24.859Z,69.95
2023-03-29T04:22:27.310Z,70.15
2023-03-29T04:23:28.887Z,69.63
2023-03-29T04:24:31.634Z,70.25
2023-03-29T04:25:33.274Z,70.84
2023-03-29T04:26:36.012Z,70.51
2023-03-29T04:27:37.629Z,70.35
2023-03-29T04:28:40.440Z,70.48
2023-03-29T04:29:44.779Z,70.15
2023-03-29T04:30:48.109Z,70.11
2023-03-29T04:31:49.763Z,68.96
2023-03-29T04:32:52.297Z,69.21
2023-03-29T04:33:55.163Z,68.39
2023-03-29T04:34:58.042Z,68.54
2023-03-29T04:35:59.691Z,68.15
2023-03-29T04:37:02.629Z,68.71
2023-03-29T04:38:10.086Z,68.64
2023-03-29T04:39:12.318Z,68.43
2023-03-29T04:40:15.421Z,68.53
2023-03-29T04:41:16.999Z,68.25
2023-03-29T04:42:19.713Z,68.30
2023-03-29T04:43:22.584Z,68.75
2023-03-29T04:44:25.251Z,67.98
2023-03-29T04:45:27.240Z,67.87
2023-03-29T04:46:30.424Z,67.98
2023-03-29T04:47:32.726Z,67.73
2023-03-29T04:48:36.638Z,68.10
2023-03-29T04:49:40.225Z,68.46
2023-03-29T04:50:42.706Z,68.49
2023-03-29T04:51:44.284Z,68.41
2023-03-29T04:52:47.139Z,69.53
2023-03-29T04:53:48.788Z,69.66
2023-03-29T04:54:51.219Z,69.55
2023-03-29T04:55:55.512Z,69.96
2023-03-29T04:56:58.122Z,69.83
2023-03-29T04:57:59.722Z,70.21
2023-03-29T04:59:02.541Z,69.89
2023-03-29T05:00:13.715Z,69.97
2023-03-29T05:01:16.775Z,70.35
2023-03-29T05:02:18.403Z,70.01
2023-03-29T05:03:22.067Z,71.33
2023-03-29T05:04:24.620Z,71.95
2023-03-29T05:05:28.726Z,72.22
2023-03-29T05:06:31.033Z,72.20
2023-03-29T05:07:33.485Z,72.25
2023-03-29T05:08:38.593Z,72.25
2023-03-29T05:09:41.639Z,71.92
2023-03-29T05:10:45.612Z,72.90
2023-03-29T05:11:47.186Z,72.87
2023-03-29T05:12:54.252Z,73.04
2023-03-29T05:13:58.418Z,73.14
2023-03-29T05:15:01.339Z,72.66
2023-03-29T05:16:04.467Z,74.13
2023-03-29T05:17:06.430Z,74.74
2023-03-29T05:18:09.753Z,74.36
2023-03-29T05:19:11.657Z,73.63
2023-03-29T05:20:14.963Z,73.97
2023-03-29T05:21:18.484Z,73.26
2023-03-29T05:22:21.563Z,73.30
2023-03-29T05:23:23.767Z,73.86
2023-03-29T05:24:26.341Z,73.87
2023-03-29T05:25:28.212Z,73.05
2023-03-29T05:26:30.961Z,73.40
2023-03-29T05:27:33.474Z,73.44
2023-03-29T05:28:35.886Z,73.59
2023-03-29T05:29:37.685Z,74.03
2023-03-29T05:30:40.903Z,73.83
2023-03-29T05:31:42.502Z,74.90
2023-03-29T05:32:45.203Z,74.29
2023-03-29T05:33:48.053Z,74.38
2023-03-29T05:34:50.516Z,76.18
2023-03-29T05:35:59.723Z,76.98
2023-03-29T05:37:03.899Z,77.57
2023-03-29T05:38:16.167Z,76.70
2023-03-29T05:39:18.947Z,76.57
2023-03-29T05:40:20.463Z,75.43
2023-03-29T05:41:24.342Z,76.01
2023-03-29T05:42:26.219Z,75.74
2023-03-29T05:43:28.717Z,75.20
2023-03-29T05:44:30.373Z,75.84
2023-03-29T05:45:33.875Z,75.48
2023-03-29T05:46:35.875Z,75.14
2023-03-29T05:47:38.400Z,76.00
2023-03-29T05:48:41.029Z,77.96
2023-03-29T05:49:42.613Z,79.15
2023-03-29T05:50:48.316Z,78.48
2023-03-29T05:51:49.978Z,77.84
2023-03-29T05:52:53.936Z,76.88
2023-03-29T05:53:55.797Z,77.28
2023-03-29T05:54:58.551Z,78.31
2023-03-29T05:56:00.170Z,77.71
2023-03-29T05:57:02.984Z,77.33
2023-03-29T05:58:05.058Z,77.93
2023-03-29T05:59:08.964Z,77.67
2023-03-29T06:00:23.542Z,77.52
2023-03-29T06:01:25.821Z,78.01
2023-03-29T06:02:28.468Z,77.98
2023-03-29T06:03:30.744Z,78.67
2023-03-29T06:04:33.905Z,79.01
2023-03-29T06:05:35.540Z,78.88
2023-03-29T06:06:37.997Z,79.27
2023-03-29T06:07:39.499Z,79.00
2023-03-29T06:08:44.119Z,78.37
2023-03-29T06:09:45.663Z,77.51
2023-03-29T06:10:52.033Z,76.62
2023-03-29T06:11:56.453Z,75.91
2023-03-29T06:12:59.054Z,75.24
2023-03-29T06:14:02.378Z,75.68
2023-03-29T06:15:06.131Z,76.09
2023-03-29T06:16:10.145Z,76.15
2023-03-29T06:17:12.300Z,78.01
2023-03-29T06:18:15.276Z,78.26
2023-03-29T06:19:17.295Z,78.71
2023-03-29T06:20:19.924Z,78.73
2023-03-29T06:21:23.327Z,77.67
2023-03-29T06:22:24.972Z,78.17
2023-03-29T06:23:27.456Z,79.34
2023-03-29T06:24:30.493Z,78.56
2023-03-29T06:25:34.082Z,77.11
2023-03-29T06:26:35.633Z,77.89
2023-03-29T06:27:38.438Z,77.01
2023-03-29T06:28:40.082Z,77.40
2023-03-29T06:29:42.668Z,77.21
2023-03-29T06:30:46.336Z,77.01
2023-03-29T06:31:51.690Z,77.13
2023-03-29T06:32:54.871Z,79.49
2023-03-29T06:33:58.291Z,78.96
2023-03-29T06:34:59.970Z,79.31
2023-03-29T06:36:02.536Z,78.71
2023-03-29T06:37:04.113Z,78.92
2023-03-29T06:38:08.126Z,78.49
2023-03-29T06:39:11.382Z,78.46
2023-03-29T06:40:15.527Z,78.42
2023-03-29T06:41:18.047Z,78.00
2023-03-29T06:42:21.574Z,77.86
2023-03-29T06:43:26.984Z,77.26
2023-03-29T06:44:29.535Z,77.19
2023-03-29T06:45:33.692Z,77.62
2023-03-29T06:46:36.002Z,77.86
2023-03-29T06:47:38.979Z,77.65
2023-03-29T06:48:44.863Z,77.88
2023-03-29T06:49:49.120Z,77.84
2023-03-29T06:50:52.325Z,77.97
2023-03-29T06:51:54.972Z,78.11
2023-03-29T06:52:57.244Z,77.45
2023-03-29T06:53:59.753Z,77.08
2023-03-29T06:55:03.037Z,77.23
2023-03-29T06:56:09.469Z,77.51
2023-03-29T06:57:13.328Z,78.36
2023-03-29T06:58:15.502Z,77.83
2023-03-29T06:59:18.065Z,77.66
2023-03-29T07:00:27.841Z,76.87
2023-03-29T07:01:30.533Z,77.65
2023-03-29T07:02:34.472Z,77.63
2023-03-29T07:03:36.316Z,78.46
2023-03-29T07:04:39.465Z,78.55
2023-03-29T07:05:42.080Z,78.69
2023-03-29T07:06:48.366Z,78.16
2023-03-29T07:08:00.304Z,77.52
2023-03-29T07:09:06.212Z,77.33
2023-03-29T07:10:08.771Z,77.81
2023-03-29T07:11:14.268Z,76.85
2023-03-29T07:12:16.766Z,77.14
2023-03-29T07:13:18.874Z,78.35
2023-03-29T07:14:21.447Z,78.24
2023-03-29T07:15:23.174Z,78.25
2023-03-29T07:16:26.002Z,78.09
2023-03-29T07:17:27.778Z,78.51
2023-03-29T07:18:30.496Z,78.54
2023-03-29T07:19:33.207Z,77.78
2023-03-29T07:20:34.978Z,77.67
2023-03-29T07:21:38.038Z,77.42
2023-03-29T07:22:39.978Z,78.82
2023-03-29T07:23:42.511Z,78.48
2023-03-29T07:24:44.004Z,78.39
2023-03-29T07:25:46.994Z,77.66
2023-03-29T07:27:03.285Z,77.73
2023-03-29T07:28:07.197Z,77.49
2023-03-29T07:29:09.704Z,77.17
2023-03-29T07:30:14.435Z,77.38
2023-03-29T07:31:17.599Z,76.23
2023-03-29T07:32:19.231Z,76.01
2023-03-29T07:33:21.853Z,75.48
2023-03-29T07:34:24.351Z,76.64
2023-03-29T07:35:27.806Z,77.04
2023-03-29T07:36:29.383Z,76.43
2023-03-29T07:37:31.953Z,75.54
2023-03-29T07:38:34.713Z,75.26
2023-03-29T07:39:37.164Z,75.44
2023-03-29T07:40:39.612Z,75.37
2023-03-29T07:41:41.217Z,77.24
2023-03-29T07:42:46.062Z,77.00
2023-03-29T07:43:50.072Z,76.85
2023-03-29T07:44:51.662Z,77.33
2023-03-29T07:45:54.174Z,77.24
2023-03-29T07:46:58.116Z,77.05
2023-03-29T07:48:00.577Z,77.08
2023-03-29T07:49:03.857Z,77.46
2023-03-29T07:50:07.433Z,77.75
2023-03-29T07:51:09.942Z,77.45
2023-03-29T07:52:12.281Z,77.58
2023-03-29T07:53:14.782Z,78.01
2023-03-29T07:54:17.692Z,77.94
2023-03-29T07:55:19.857Z,78.03
2023-03-29T07:56:26.705Z,77.82
2023-03-29T07:57:28.327Z,78.36
2023-03-29T07:58:32.575Z,78.59
2023-03-29T07:59:34.141Z,78.34
2023-03-29T08:00:36.676Z,78.15
2023-03-29T08:01:40.869Z,77.50
2023-03-29T08:02:43.469Z,77.59
2023-03-29T08:03:46.045Z,77.12
2023-03-29T08:04:50.022Z,76.18
2023-03-29T08:05:52.753Z,75.63
2023-03-29T08:06:55.281Z,75.21
2023-03-29T08:07:57.829Z,74.96
2023-03-29T08:09:01.637Z,75.36
2023-03-29T08:10:04.242Z,75.76
2023-03-29T08:11:08.860Z,76.66
2023-03-29T08:12:12.868Z,75.72
2023-03-29T08:13:15.440Z,75.36
2023-03-29T08:14:19.421Z,75.35
2023-03-29T08:15:23.031Z,75.22
2023-03-29T08:16:26.333Z,74.92
2023-03-29T08:17:28.503Z,74.48
2023-03-29T08:18:34.138Z,75.22
2023-03-29T08:19:37.432Z,75.81
2023-03-29T08:20:38.947Z,75.29
2023-03-29T08:21:42.145Z,75.12
2023-03-29T08:22:44.861Z,76.92
2023-03-29T08:23:47.083Z,76.53
2023-03-29T08:24:49.614Z,75.47
2023-03-29T08:25:54.084Z,75.05
2023-03-29T08:26:55.879Z,75.10
2023-03-29T08:27:58.890Z,76.47
2023-03-29T08:29:00.642Z,76.42
2023-03-29T08:30:05.405Z,76.15
2023-03-29T08:31:08.526Z,76.68
2023-03-29T08:32:10.692Z,75.12
2023-03-29T08:33:15.695Z,75.01
2023-03-29T08:34:18.241Z,74.64
2023-03-29T08:35:20.000Z,74.59
2023-03-29T08:36:22.696Z,73.63
2023-03-29T08:37:25.915Z,74.12
2023-03-29T08:38:28.312Z,74.06
2023-03-29T08:39:31.584Z,74.39
2023-03-29T08:40:34.272Z,74.19
2023-03-29T08:41:54.123Z,73.59
2023-03-29T08:43:15.640Z,73.19
2023-03-29T08:44:31.005Z,72.80
2023-03-29T08:45:41.309Z,74.99
2023-03-29T08:46:51.947Z,74.57
2023-03-29T08:48:03.766Z,74.28
2023-03-29T08:49:09.479Z,75.08
2023-03-29T08:50:14.013Z,75.76
2023-03-29T08:51:23.592Z,75.78
2023-03-29T08:52:33.202Z,75.21
2023-03-29T08:53:41.699Z,75.31
2023-03-29T08:54:46.261Z,74.96
2023-03-29T08:55:50.050Z,75.38
2023-03-29T08:56:54.415Z,75.03
2023-03-29T08:57:58.422Z,74.24
2023-03-29T08:59:02.070Z,73.38
2023-03-29T09:00:07.009Z,73.78
2023-03-29T09:01:11.919Z,73.23
2023-03-29T09:02:22.502Z,74.26
2023-03-29T09:03:31.339Z,74.22
2023-03-29T09:04:36.041Z,74.13
2023-03-29T09:05:44.530Z,73.33
2023-03-29T09:06:47.669Z,73.28
2023-03-29T09:07:49.192Z,72.13
2023-03-29T09:08:53.420Z,72.29
2023-03-29T09:09:55.040Z,71.79
2023-03-29T09:11:13.865Z,73.01
2023-03-29T09:12:38.550Z,72.62
2023-03-29T09:13:49.086Z,71.50
2023-03-29T09:15:06.969Z,71.65
2023-03-29T09:16:19.863Z,70.66
2023-03-29T09:17:38.994Z,72.92
2023-03-29T09:18:53.173Z,72.79
2023-03-29T09:20:01.883Z,72.49
2023-03-29T09:21:12.931Z,72.68
2023-03-29T09:22:25.161Z,71.75
2023-03-29T09:23:58.174Z,71.87
2023-03-29T09:25:10.813Z,70.83
2023-03-29T09:26:22.468Z,70.48
2023-03-29T09:27:28.383Z,69.59
2023-03-29T09:28:38.172Z,68.81
2023-03-29T09:29:54.566Z,68.28
2023-03-29T09:31:05.066Z,67.42
2023-03-29T09:32:18.658Z,70.00
2023-03-29T09:33:27.019Z,69.70
2023-03-29T09:34:31.539Z,69.24
2023-03-29T09:35:39.275Z,68.78
2023-03-29T09:36:50.612Z,69.09
2023-03-29T09:37:55.263Z,68.94
2023-03-29T09:38:57.910Z,69.47
2023-03-29T09:40:03.846Z,68.90
2023-03-29T09:41:19.042Z,68.83
2023-03-29T09:42:22.821Z,68.92
2023-03-29T09:43:31.640Z,68.51
2023-03-29T09:44:41.141Z,69.45
2023-03-29T09:45:44.571Z,68.98
2023-03-29T09:46:52.638Z,68.31
2023-03-29T09:48:00.204Z,68.46
2023-03-29T09:49:05.063Z,69.17
2023-03-29T09:50:23.122Z,68.18
2023-03-29T09:51:35.396Z,67.30
2023-03-29T09:52:37.272Z,66.26
2023-03-29T09:53:39.933Z,66.08
2023-03-29T09:54:41.600Z,65.96
2023-03-29T09:55:47.815Z,66.67
2023-03-29T09:56:52.751Z,67.58
2023-03-29T09:57:59.246Z,67.47
2023-03-29T09:59:01.446Z,67.33
2023-03-29T10:00:06.435Z,66.38
2023-03-29T10:01:10.323Z,65.49
2023-03-29T10:02:14.996Z,65.81
2023-03-29T10:03:23.820Z,65.34
2023-03-29T10:04:26.748Z,64.89
2023-03-29T10:05:33.020Z,66.08
2023-03-29T10:06:36.804Z,67.32
2023-03-29T10:07:44.760Z,66.84
2023-03-29T10:08:50.023Z,66.54
2023-03-29T10:09:55.356Z,68.00
2023-03-29T10:10:58.321Z,68.73
2023-03-29T10:12:03.453Z,67.50
2023-03-29T10:13:08.585Z,66.35
2023-03-29T10:14:17.710Z,66.28
2023-03-29T10:15:29.347Z,66.10
2023-03-29T10:16:38.274Z,65.71
2023-03-29T10:17:41.082Z,65.21
2023-03-29T10:18:45.062Z,64.76
2023-03-29T10:19:50.475Z,65.22
2023-03-29T10:20:58.887Z,64.33
2023-03-29T10:22:03.793Z,64.13
2023-03-29T10:23:08.061Z,63.19
2023-03-29T10:24:11.422Z,63.37
2023-03-29T10:25:17.113Z,64.55
2023-03-29T10:26:29.231Z,65.14
2023-03-29T10:27:34.565Z,64.65
2023-03-29T10:28:37.454Z,63.77
2023-03-29T10:29:43.068Z,63.90
2023-03-29T10:30:48.733Z,63.83
2023-03-29T10:31:52.018Z,62.71
2023-03-29T10:32:58.884Z,61.86
2023-03-29T10:34:06.370Z,62.24
2023-03-29T10:35:11.846Z,62.69
2023-03-29T10:36:15.535Z,62.82
2023-03-29T10:37:19.782Z,62.73
2023-03-29T10:38:24.471Z,63.66
2023-03-29T10:39:30.022Z,63.51
2023-03-29T10:40:33.995Z,63.05
2023-03-29T10:41:37.295Z,63.04
2023-03-29T10:42:48.510Z,62.89
2023-03-29T10:43:51.773Z,62.70
2023-03-29T10:44:55.558Z,63.61
2023-03-29T10:46:08.388Z,63.65
2023-03-29T10:47:15.837Z,62.97
2023-03-29T10:48:19.297Z,62.75
2023-03-29T10:49:25.549Z,62.37
2023-03-29T10:50:34.664Z,63.06
2023-03-29T10:51:37.764Z,62.45
2023-03-29T10:52:42.188Z,62.61
2023-03-29T10:53:44.892Z,61.58
2023-03-29T10:54:48.222Z,60.85
2023-03-29T10:56:01.681Z,62.10
2023-03-29T10:57:08.697Z,63.35
2023-03-29T10:58:26.111Z,62.54
2023-03-29T10:59:30.755Z,62.68
2023-03-29T11:00:36.912Z,61.31
2023-03-29T11:01:48.941Z,61.77
2023-03-29T11:03:15.862Z,61.64
2023-03-29T11:04:28.301Z,60.16
2023-03-29T11:05:36.778Z,59.70
2023-03-29T11:06:44.101Z,59.90
2023-03-29T11:08:02.742Z,58.40
2023-03-29T11:09:14.141Z,58.63
2023-03-29T11:10:30.741Z,57.90
2023-03-29T11:12:01.071Z,57.96
2023-03-29T11:13:21.945Z,57.64
2023-03-29T11:14:34.606Z,57.33
2023-03-29T11:15:54.394Z,58.43
2023-03-29T11:17:09.686Z,58.57
2023-03-29T11:18:37.990Z,57.37
2023-03-29T11:19:55.519Z,58.40
2023-03-29T11:21:10.786Z,58.76
2023-03-29T11:22:19.917Z,58.57
2023-03-29T11:23:35.270Z,58.36
2023-03-29T11:24:59.543Z,59.12
2023-03-29T11:26:12.329Z,59.76
2023-03-29T11:27:25.239Z,59.42
2023-03-29T11:28:35.888Z,59.29
2023-03-29T11:29:48.994Z,60.43
2023-03-29T11:31:02.401Z,60.60
2023-03-29T11:32:14.642Z,59.56
2023-03-29T11:33:32.756Z,59.50
2023-03-29T11:34:45.609Z,61.25
2023-03-29T11:35:57.524Z,61.07
2023-03-29T11:37:04.387Z,62.21
2023-03-29T11:38:14.413Z,61.68
2023-03-29T11:39:24.621Z,61.25
2023-03-29T11:40:39.192Z,60.68
2023-03-29T11:41:46.541Z,60.29
2023-03-29T11:42:53.977Z,59.79
2023-03-29T11:44:03.187Z,59.57
2023-03-29T11:45:12.150Z,60.10
2023-03-29T11:46:18.768Z,59.59
2023-03-29T11:47:23.143Z,59.26
2023-03-29T11:48:32.444Z,59.76
2023-03-29T11:49:41.746Z,59.16
2023-03-29T11:50:51.394Z,59.94
2023-03-29T11:52:00.122Z,59.29
2023-03-29T11:53:05.183Z,59.42
2023-03-29T11:54:18.259Z,59.93
2023-03-29T11:55:26.153Z,60.15
2023-03-29T11:56:35.003Z,59.63
2023-03-29T11:57:39.013Z,59.05
2023-03-29T11:58:46.146Z,59.17
2023-03-29T11:59:55.092Z,59.93
2023-03-29T12:01:01.778Z,59.86
2023-03-29T12:02:14.669Z,59.50
2023-03-29T12:03:28.399Z,59.38
2023-03-29T12:04:34.994Z,58.13
2023-03-29T12:05:42.612Z,57.39
2023-03-29T12:06:53.431Z,57.32
2023-03-29T12:08:10.195Z,56.49
2023-03-29T12:09:23.800Z,55.58
2023-03-29T12:10:35.258Z,54.50
2023-03-29T12:11:40.332Z,52.97
2023-03-29T12:12:46.682Z,52.31
2023-03-29T12:13:53.621Z,52.06
2023-03-29T12:15:02.349Z,51.55
2023-03-29T12:16:14.676Z,50.35
2023-03-29T12:17:21.541Z,49.46
2023-03-29T12:18:28.591Z,47.63
2023-03-29T12:19:37.568Z,49.42
2023-03-29T12:20:45.206Z,49.75
2023-03-29T12:21:48.828Z,49.27
2023-03-29T12:22:52.041Z,50.27
2023-03-29T12:23:55.517Z,50.83
2023-03-29T12:24:58.784Z,50.88
2023-03-29T12:26:07.129Z,52.95
2023-03-29T12:27:26.074Z,52.57
2023-03-29T12:28:46.070Z,56.66
2023-03-29T12:30:03.649Z,56.29
2023-03-29T12:31:16.199Z,55.19
2023-03-29T12:32:51.104Z,55.93
2023-03-29T12:34:13.115Z,56.47
2023-03-29T12:35:25.515Z,56.99
2023-03-29T12:36:58.341Z,56.67
2023-03-29T12:38:10.995Z,56.50
2023-03-29T12:39:16.236Z,56.53
2023-03-29T12:40:21.606Z,56.38
2023-03-29T12:41:26.102Z,56.94
2023-03-29T12:42:28.767Z,56.28
2023-03-29T12:43:34.031Z,55.81
2023-03-29T12:44:35.659Z,55.87
2023-03-29T12:45:40.653Z,54.62
2023-03-29T12:46:43.930Z,55.68
2023-03-29T12:47:47.351Z,55.68
2023-03-29T12:48:55.481Z,55.25
2023-03-29T12:49:58.878Z,55.27
2023-03-29T12:51:04.064Z,56.79
2023-03-29T12:52:14.765Z,57.93
2023-03-29T12:53:22.752Z,57.31
2023-03-29T12:54:28.722Z,56.13
2023-03-29T12:55:34.267Z,55.36
2023-03-29T12:56:42.145Z,55.15
2023-03-29T12:57:47.646Z,55.02
2023-03-29T12:58:54.754Z,55.55
2023-03-29T12:59:57.286Z,56.53
2023-03-29T13:01:06.576Z,56.13
2023-03-29T13:02:35.052Z,55.10
2023-03-29T13:03:51.128Z,55.68
2023-03-29T13:04:55.602Z,56.78
2023-03-29T13:06:02.707Z,57.97
2023-03-29T13:07:05.898Z,59.03
2023-03-29T13:08:23.712Z,58.27
2023-03-29T13:09:29.981Z,58.10
2023-03-29T13:10:39.560Z,58.90
2023-03-29T13:11:43.321Z,58.10
2023-03-29T13:12:47.393Z,58.63
2023-03-29T13:13:52.400Z,57.28
2023-03-29T13:14:56.786Z,55.77
2023-03-29T13:16:14.163Z,55.46
2023-03-29T13:17:26.671Z,54.09
2023-03-29T13:18:42.304Z,50.92
2023-03-29T13:19:51.125Z,50.60
2023-03-29T13:21:01.372Z,50.85
2023-03-29T13:22:15.351Z,49.92
2023-03-29T13:23:36.362Z,52.29
2023-03-29T13:24:53.795Z,54.29
2023-03-29T13:26:13.781Z,54.26
2023-03-29T13:27:28.426Z,54.48
2023-03-29T13:28:39.083Z,54.26
2023-03-29T13:29:53.073Z,54.73
2023-03-29T13:31:03.112Z,55.16
2023-03-29T13:32:23.179Z,54.48
2023-03-29T13:33:45.453Z,54.33
2023-03-29T13:34:57.547Z,52.79
2023-03-29T13:36:07.076Z,53.00
2023-03-29T13:37:23.857Z,52.55
2023-03-29T13:38:31.795Z,52.81
2023-03-29T13:39:37.359Z,52.57
2023-03-29T13:40:47.644Z,51.90
2023-03-29T13:41:52.687Z,53.04
2023-03-29T13:42:58.962Z,53.67
2023-03-29T13:44:01.667Z,55.05
2023-03-29T13:45:14.544Z,56.74
2023-03-29T13:46:23.362Z,57.45
2023-03-29T13:47:39.267Z,57.18
2023-03-29T13:48:53.858Z,57.78
2023-03-29T13:49:59.401Z,58.18
2023-03-29T13:51:10.493Z,58.30
2023-03-29T13:52:17.409Z,58.44
2023-03-29T13:53:27.860Z,58.05
2023-03-29T13:54:36.500Z,57.38
2023-03-29T13:55:47.025Z,57.59
2023-03-29T13:56:59.758Z,57.95
2023-03-29T13:58:07.330Z,58.73
2023-03-29T13:59:15.483Z,58.55
2023-03-29T14:00:23.043Z,59.44
2023-03-29T14:01:29.984Z,59.28
2023-03-29T14:02:38.723Z,59.41
2023-03-29T14:03:46.049Z,59.11
2023-03-29T14:04:50.862Z,58.67
2023-03-29T14:05:59.546Z,58.97
2023-03-29T14:07:02.147Z,59.46
2023-03-29T14:08:10.543Z,59.96
2023-03-29T14:09:15.429Z,60.21